Time;durP1;ratioP1;P1;durP2;ratioP2;P2;SDS_P1;SDS_P2;PMS_P1;PMS_P2;Temp;Humidity;BMP_temperature;BMP_pressure;BME280_temperature;BME280_humidity;BME280_pressure;Samples;Min_cycle;Max_cycle;Signal;HPM_P1;HPM_P2
2022/12/12 00:00:37;;;;;;;9.50;7.10;;;4.60;76.80;;;;;;5073382;28;20036;-82
2022/12/12 00:03:03;;;;;;;10.57;7.88;;;4.60;76.80;;;;;;5073310;28;20028;-83
2022/12/12 00:05:29;;;;;;;10.90;7.70;;;4.60;76.80;;;;;;5073830;28;20077;-83
2022/12/12 00:07:55;;;;;;;9.65;7.47;;;4.60;76.80;;;;;;5056141;28;20028;-82
2022/12/12 00:10:20;;;;;;;10.10;7.45;;;4.60;76.80;;;;;;5056636;28;20116;-82
2022/12/12 00:12:46;;;;;;;10.02;7.38;;;4.60;76.80;;;;;;5059819;28;20542;-83
2022/12/12 00:15:12;;;;;;;11.02;7.80;;;4.60;76.80;;;;;;5060091;28;20028;-83
2022/12/12 00:17:38;;;;;;;10.75;7.55;;;4.60;76.80;;;;;;5043280;28;20029;-83
2022/12/12 00:20:04;;;;;;;9.23;6.97;;;4.60;76.80;;;;;;5060313;28;20497;-84
2022/12/12 00:22:30;;;;;;;10.82;7.68;;;4.60;76.80;;;;;;5075422;28;20040;-84
2022/12/12 00:24:56;;;;;;;10.02;7.43;;;4.60;76.80;;;;;;5043109;28;20032;-80
2022/12/12 00:27:22;;;;;;;9.52;6.82;;;4.60;76.80;;;;;;5059693;28;20032;-83
2022/12/12 00:29:54;;;;;;;10.18;7.25;;;4.60;76.80;;;;;;5077061;28;20048;-82
2022/12/12 00:32:20;;;;;;;10.20;7.65;;;4.60;76.80;;;;;;5043571;28;20040;-83
2022/12/12 00:34:46;;;;;;;9.93;7.63;;;4.60;76.80;;;;;;5060091;28;20037;-83
2022/12/12 00:37:11;;;;;;;10.80;7.82;;;4.60;76.80;;;;;;5059589;28;20445;-82
2022/12/12 00:39:37;;;;;;;9.55;6.78;;;4.60;76.80;;;;;;5075959;28;20178;-82
2022/12/12 00:42:03;;;;;;;10.50;7.35;;;4.60;76.80;;;;;;5077129;28;20025;-83
2022/12/12 00:44:29;;;;;;;10.45;7.55;;;4.60;76.80;;;;;;5076897;28;20056;-83
2022/12/12 00:46:55;;;;;;;9.65;7.18;;;4.60;76.80;;;;;;5059322;28;20113;-83
2022/12/12 00:49:21;;;;;;;10.48;7.15;;;4.60;76.80;;;;;;5058855;28;20453;-83
2022/12/12 00:51:47;;;;;;;10.18;7.05;;;4.60;76.80;;;;;;5059237;28;20072;-82
2022/12/12 00:54:13;;;;;;;10.75;7.60;;;4.60;76.80;;;;;;5075991;28;20032;-81
2022/12/12 00:56:39;;;;;;;9.90;7.40;;;4.60;76.80;;;;;;5076833;28;20029;-82
2022/12/12 00:59:06;;;;;;;9.43;7.00;;;4.60;76.80;;;;;;5076715;28;20044;-84
2022/12/12 01:01:33;;;;;;;10.57;7.72;;;4.60;76.80;;;;;;5041986;28;20035;-83
2022/12/12 01:03:59;;;;;;;9.93;7.07;;;4.60;76.80;;;;;;5059121;28;20028;-83
2022/12/12 01:06:26;;;;;;;9.23;6.70;;;4.60;76.80;;;;;;5076795;28;20024;-83
2022/12/12 01:08:52;;;;;;;9.68;7.35;;;4.60;76.80;;;;;;5075779;28;20123;-83
2022/12/12 01:11:19;;;;;;;10.52;7.47;;;4.60;76.80;;;;;;5055114;28;20094;-80
2022/12/12 01:13:46;;;;;;;9.70;6.82;;;4.60;76.80;;;;;;5056237;28;20484;-82
2022/12/12 01:16:12;;;;;;;10.38;7.15;;;4.60;76.80;;;;;;5056230;28;20489;-83
2022/12/12 01:18:39;;;;;;;8.57;6.57;;;4.60;76.80;;;;;;5055326;28;20033;-83
2022/12/12 01:21:14;;;;;;;9.82;7.15;;;4.60;76.80;;;;;;5055896;28;20043;-84
2022/12/12 01:23:41;;;;;;;10.38;7.28;;;4.60;76.80;;;;;;5071254;28;20055;-83
2022/12/12 01:26:10;;;;;;;8.70;6.45;;;4.60;76.90;;;;;;5038996;28;20480;-83
2022/12/12 01:28:36;;;;;;;9.25;6.85;;;4.60;76.80;;;;;;5072142;28;20029;-83
2022/12/12 01:31:02;;;;;;;9.82;7.07;;;4.60;76.80;;;;;;5038955;28;20037;-83
2022/12/12 01:33:28;;;;;;;10.35;7.30;;;4.60;76.80;;;;;;5056639;28;20025;-83
2022/12/12 01:35:53;;;;;;;9.27;6.93;;;4.60;76.80;;;;;;5039069;28;20044;-83
2022/12/12 01:38:19;;;;;;;11.35;8.10;;;4.60;76.80;;;;;;5056166;28;20462;-83
2022/12/12 01:40:45;;;;;;;9.93;7.65;;;4.60;76.80;;;;;;5055142;28;20124;-83
2022/12/12 01:43:13;;;;;;;10.93;7.35;;;4.60;76.80;;;;;;5055046;28;20080;-83
2022/12/12 01:46:01;;;;;;;9.40;6.45;;;4.60;76.90;;;;;;5071637;28;20034;-83
2022/12/12 01:48:38;;;;;;;8.90;6.85;;;4.60;76.90;;;;;;5055025;28;20075;-83
2022/12/12 01:51:08;;;;;;;9.48;6.38;;;4.60;76.80;;;;;;5056443;28;20128;-83
2022/12/12 01:53:35;;;;;;;9.13;6.97;;;4.60;76.80;;;;;;5055937;28;20082;-83
2022/12/12 01:56:03;;;;;;;9.65;6.68;;;4.60;76.80;;;;;;5054854;28;20033;-83
2022/12/12 01:58:30;;;;;;;9.55;7.20;;;4.60;76.80;;;;;;5054806;28;20033;-83
2022/12/12 02:00:56;;;;;;;9.32;7.18;;;4.60;76.80;;;;;;5038117;28;20110;-83
2022/12/12 02:03:22;;;;;;;10.15;7.05;;;4.60;76.80;;;;;;5054446;28;20037;-83
2022/12/12 02:05:55;;;;;;;9.77;6.82;;;4.60;76.80;;;;;;5038080;28;20033;-83
2022/12/12 02:08:22;;;;;;;9.23;6.88;;;4.60;76.80;;;;;;5055668;28;20032;-83
2022/12/12 02:10:48;;;;;;;10.55;7.30;;;4.60;76.80;;;;;;5070503;28;20111;-82
2022/12/12 02:13:25;;;;;;;9.57;7.32;;;4.60;76.80;;;;;;5054379;28;20037;-82
2022/12/12 02:16:25;;;;;;;10.18;7.80;;;4.60;76.80;;;;;;5055032;28;20454;-84
2022/12/12 02:19:16;;;;;;;10.20;7.15;;;4.60;76.80;;;;;;5055120;28;20021;-84
2022/12/12 02:21:50;;;;;;;10.48;7.15;;;4.50;76.80;;;;;;5052475;28;20045;-83
2022/12/12 02:24:38;;;;;;;10.32;6.88;;;4.60;76.80;;;;;;5054845;28;20056;-84
2022/12/12 02:27:38;;;;;;;9.18;6.82;;;4.50;76.80;;;;;;5054029;28;20079;-82
2022/12/12 02:30:11;;;;;;;9.70;7.32;;;4.50;76.80;;;;;;5055055;28;20029;-83
2022/12/12 02:33:23;;;;;;;9.70;7.75;;;4.50;76.80;;;;;;5055139;28;20039;-83
2022/12/12 02:36:10;;;;;;;10.18;6.88;;;4.50;76.80;;;;;;5045289;28;20037;-83
2022/12/12 02:38:52;;;;;;;9.75;6.97;;;4.50;76.80;;;;;;5070836;28;20466;-83
2022/12/12 02:41:42;;;;;;;9.88;6.72;;;4.50;76.80;;;;;;5054057;28;20489;-81
2022/12/12 02:44:37;;;;;;;9.43;6.95;;;4.50;76.80;;;;;;5052379;28;20492;-83
2022/12/12 02:47:11;;;;;;;9.63;6.93;;;4.50;76.80;;;;;;5019084;28;20044;-82
2022/12/12 02:49:47;;;;;;;9.95;7.25;;;4.50;76.80;;;;;;5054082;28;20529;-82
2022/12/12 02:52:15;;;;;;;9.80;7.07;;;4.50;76.80;;;;;;5054007;28;20493;-82
2022/12/12 02:54:40;;;;;;;10.98;7.50;;;4.50;76.80;;;;;;5054725;28;20489;-83
2022/12/12 02:57:18;;;;;;;9.63;6.75;;;4.50;76.80;;;;;;5054568;28;20037;-82
2022/12/12 02:59:50;;;;;;;9.50;6.97;;;4.50;76.80;;;;;;5053822;28;20037;-83
2022/12/12 03:02:44;;;;;;;10.25;7.00;;;4.50;76.80;;;;;;5054775;28;20094;-83
2022/12/12 03:08:31;;;;;;;9.30;6.90;;;4.50;76.80;;;;;;5054546;28;20473;-82
2022/12/12 03:11:01;;;;;;;9.38;6.43;;;4.50;76.80;;;;;;5049504;28;20084;-83
2022/12/12 03:14:07;;;;;;;9.98;7.57;;;4.40;76.70;;;;;;5034284;28;20030;-82
2022/12/12 03:16:41;;;;;;;;;;;4.40;76.80;;;;;;4995560;28;20069;-83
2022/12/12 03:19:16;;;;;;;7.72;5.68;;;4.40;76.70;;;;;;5017965;28;19944;-83
2022/12/12 03:21:59;;;;;;;9.15;7.13;;;4.40;76.70;;;;;;5050110;28;20127;-83
2022/12/12 03:24:50;;;;;;;9.10;6.57;;;4.40;76.80;;;;;;5050043;28;20033;-82
2022/12/12 03:27:29;;;;;;;9.30;6.50;;;4.40;77.40;;;;;;5033452;28;20037;-79
2022/12/12 03:30:00;;;;;;;9.25;6.93;;;4.40;76.80;;;;;;5034797;28;20068;-83
2022/12/12 03:32:40;;;;;;;9.45;7.22;;;4.40;76.80;;;;;;5049673;28;20029;-84
2022/12/12 03:35:21;;;;;;;10.00;7.05;;;4.40;76.80;;;;;;5033511;28;20044;-83
2022/12/12 03:37:57;;;;;;;9.32;6.75;;;4.40;77.40;;;;;;5033546;28;20021;-83
2022/12/12 03:40:27;;;;;;;9.38;6.63;;;4.40;76.80;;;;;;5050253;28;20030;-83
2022/12/12 03:43:04;;;;;;;9.35;6.47;;;4.40;76.80;;;;;;5033008;28;20036;-82
2022/12/12 03:45:48;;;;;;;10.70;7.35;;;4.40;76.80;;;;;;5033731;28;20056;-84
2022/12/12 03:48:33;;;;;;;9.77;6.93;;;4.40;76.80;;;;;;5054193;28;20082;-84
2022/12/12 03:51:12;;;;;;;10.35;7.18;;;4.40;76.80;;;;;;5053261;28;20079;-83
2022/12/12 03:54:06;;;;;;;9.35;7.13;;;4.40;76.80;;;;;;5053865;28;20030;-83
2022/12/12 03:57:06;;;;;;;9.07;6.78;;;4.30;76.80;;;;;;5038465;28;20060;-82
2022/12/12 03:59:38;;;;;;;8.63;6.47;;;4.30;76.80;;;;;;5038080;28;20030;-83
2022/12/12 04:02:16;;;;;;;8.05;6.28;;;4.30;76.80;;;;;;5038206;28;20080;-81
2022/12/12 04:04:55;;;;;;;9.13;6.35;;;4.30;76.80;;;;;;5038261;28;20044;-82
2022/12/12 04:07:30;;;;;;;9.18;7.07;;;4.30;76.80;;;;;;5053932;28;20092;-83
2022/12/12 04:13:02;;;;;;;9.13;6.38;;;4.20;76.70;;;;;;5037410;28;20065;-82
2022/12/12 04:15:50;;;;;;;10.05;6.82;;;4.20;76.70;;;;;;5036947;28;20047;-82
2022/12/12 04:18:35;;;;;;;8.48;6.18;;;4.20;76.70;;;;;;5020813;28;20031;-83
2022/12/12 04:24:09;;;;;;;8.30;6.28;;;4.20;76.70;;;;;;5037269;28;20104;-82
2022/12/12 04:26:44;;;;;;;10.02;7.22;;;4.20;76.70;;;;;;5036702;28;20037;-83
2022/12/12 04:29:22;;;;;;;10.65;7.50;;;4.10;76.70;;;;;;5036400;28;20032;-80
2022/12/12 04:32:06;;;;;;;9.02;6.22;;;4.10;76.70;;;;;;5036911;28;20458;-84
2022/12/12 04:34:53;;;;;;;9.80;6.97;;;4.10;76.70;;;;;;5037519;28;20068;-82
2022/12/12 04:38:01;;;;;;;8.45;6.10;;;4.10;76.70;;;;;;5053024;28;20029;-83
2022/12/12 04:40:34;;;;;;;9.23;6.22;;;4.00;76.70;;;;;;4998583;28;20045;-83
2022/12/12 04:43:09;;;;;;;9.10;6.65;;;4.00;76.70;;;;;;5037407;28;20080;-83
2022/12/12 04:45:49;;;;;;;8.77;6.22;;;4.00;76.70;;;;;;5036424;28;20033;-81
2022/12/12 04:48:19;;;;;;;9.48;6.75;;;4.00;76.70;;;;;;5036933;28;20029;-83
2022/12/12 04:50:49;;;;;;;9.48;7.15;;;4.00;76.70;;;;;;5019325;28;20079;-82
2022/12/12 04:53:18;;;;;;;10.00;7.35;;;4.00;76.70;;;;;;5036132;28;20025;-83
2022/12/12 04:55:50;;;;;;;9.40;6.50;;;4.00;76.70;;;;;;5035977;28;20049;-83
2022/12/12 04:58:16;;;;;;;8.98;6.70;;;3.90;76.70;;;;;;5052720;28;20033;-81
2022/12/12 05:00:54;;;;;;;9.48;7.03;;;3.90;76.60;;;;;;5036897;28;20088;-83
2022/12/12 05:04:04;;;;;;;9.55;6.78;;;3.90;76.60;;;;;;5036632;28;20037;-83
2022/12/12 05:06:43;;;;;;;9.68;6.88;;;3.90;76.60;;;;;;5052313;28;20474;-84
2022/12/12 05:09:10;;;;;;;8.43;6.40;;;3.80;76.60;;;;;;5052707;28;20033;-83
2022/12/12 05:11:36;;;;;;;8.18;6.50;;;3.80;76.60;;;;;;5063032;28;20420;-82
2022/12/12 05:14:02;;;;;;;8.77;6.75;;;3.80;76.60;;;;;;5058908;28;20055;-82
2022/12/12 05:16:44;;;;;;;9.30;6.53;;;3.80;76.60;;;;;;5076314;28;20029;-82
2022/12/12 05:19:10;;;;;;;9.30;6.88;;;3.80;76.60;;;;;;5075691;28;20029;-81
2022/12/12 05:21:36;;;;;;;9.70;7.03;;;3.70;76.60;;;;;;5058498;28;20047;-85
2022/12/12 05:24:01;;;;;;;9.02;6.35;;;3.70;76.60;;;;;;5075304;28;20043;-82
2022/12/12 05:26:32;;;;;;;10.00;7.72;;;3.70;76.60;;;;;;5075230;28;20057;-81
2022/12/12 05:28:58;;;;;;;9.07;7.07;;;3.70;76.60;;;;;;5059002;28;20036;-82
2022/12/12 05:31:24;;;;;;;9.20;7.30;;;3.60;76.60;;;;;;5058148;28;20028;-81
2022/12/12 05:33:51;;;;;;;9.02;6.55;;;3.70;76.60;;;;;;5059322;28;20033;-79
2022/12/12 05:36:17;;;;;;;9.73;6.50;;;3.60;76.60;;;;;;5058017;28;20052;-79
2022/12/12 05:38:43;;;;;;;10.82;6.97;;;3.60;76.60;;;;;;5075115;28;20032;-82
2022/12/12 05:41:09;;;;;;;9.32;6.57;;;3.60;76.60;;;;;;5058293;28;20033;-81
2022/12/12 05:43:35;;;;;;;10.15;7.05;;;3.50;76.50;;;;;;5057901;28;20052;-82
2022/12/12 05:46:01;;;;;;;9.45;6.43;;;3.50;76.50;;;;;;5058294;28;20031;-81
2022/12/12 05:48:26;;;;;;;9.02;6.80;;;3.50;76.50;;;;;;5075993;28;20078;-82
2022/12/12 05:50:52;;;;;;;9.23;6.75;;;3.50;76.60;;;;;;5075033;28;20036;-79
2022/12/12 05:53:19;;;;;;;10.13;7.32;;;3.40;76.50;;;;;;5041317;28;20360;-79
2022/12/12 05:55:45;;;;;;;8.68;6.38;;;3.40;76.50;;;;;;5057685;28;20020;-82
2022/12/12 05:58:11;;;;;;;9.05;6.65;;;3.40;76.60;;;;;;5057577;28;20041;-79
2022/12/12 06:00:37;;;;;;;9.65;6.78;;;3.40;76.50;;;;;;5074238;28;20036;-78
2022/12/12 06:03:02;;;;;;;8.82;6.78;;;3.40;76.60;;;;;;5074624;28;20501;-80
2022/12/12 06:05:28;;;;;;;10.00;7.22;;;3.40;76.50;;;;;;5074254;28;20145;-80
2022/12/12 06:07:54;;;;;;;10.40;7.55;;;3.30;76.50;;;;;;5057143;28;20473;-79
2022/12/12 06:10:19;;;;;;;10.55;7.35;;;3.30;76.50;;;;;;5056981;28;20068;-80
2022/12/12 06:12:45;;;;;;;9.85;7.07;;;3.30;76.50;;;;;;5074489;28;20041;-80
2022/12/12 06:15:12;;;;;;;9.23;6.85;;;3.30;76.50;;;;;;5057196;28;20032;-78
2022/12/12 06:17:38;;;;;;;9.73;6.72;;;3.20;76.40;;;;;;5074133;28;20032;-80
2022/12/12 06:20:04;;;;;;;10.43;7.35;;;3.30;76.50;;;;;;5057895;28;20124;-80
2022/12/12 06:22:30;;;;;;;9.32;6.90;;;3.20;76.40;;;;;;5058361;28;20028;-80
2022/12/12 06:24:56;;;;;;;8.82;7.00;;;3.20;76.40;;;;;;5057233;28;20028;-80
2022/12/12 06:27:22;;;;;;;9.93;7.30;;;3.20;76.50;;;;;;5040978;28;20020;-80
2022/12/12 06:29:47;;;;;;;10.35;6.90;;;3.10;76.40;;;;;;5056938;28;20037;-80
2022/12/12 06:32:13;;;;;;;10.13;7.38;;;3.10;76.40;;;;;;5057055;28;20041;-80
2022/12/12 06:34:39;;;;;;;9.38;7.00;;;3.10;76.40;;;;;;5075301;28;20024;-80
2022/12/12 06:37:05;;;;;;;9.10;6.63;;;3.10;76.40;;;;;;5074494;28;20441;-78
2022/12/12 06:39:31;;;;;;;9.13;6.18;;;3.10;76.40;;;;;;5057021;28;20033;-80
2022/12/12 06:41:57;;;;;;;9.85;7.32;;;3.10;76.40;;;;;;5057182;28;20029;-79
2022/12/12 06:44:23;;;;;;;9.38;7.25;;;3.00;76.30;;;;;;5057546;28;20025;-80
2022/12/12 06:46:49;;;;;;;9.73;6.75;;;3.00;76.30;;;;;;5056858;28;20037;-80
2022/12/12 06:49:14;;;;;;;10.25;6.93;;;3.00;76.30;;;;;;5056743;28;20115;-80
2022/12/12 06:51:43;;;;;;;9.57;6.85;;;3.00;76.40;;;;;;5073561;28;20032;-80
2022/12/12 06:54:13;;;;;;;9.63;7.68;;;3.00;76.40;;;;;;5074292;28;20524;-79
2022/12/12 06:56:39;;;;;;;10.55;7.03;;;2.90;76.30;;;;;;5057364;28;20021;-80
2022/12/12 06:59:05;;;;;;;9.00;6.70;;;2.90;76.40;;;;;;5073301;28;20040;-79
2022/12/12 07:01:31;;;;;;;10.57;7.75;;;2.90;76.30;;;;;;5073960;28;20381;-79
2022/12/12 07:03:57;;;;;;;11.05;7.38;;;2.90;76.40;;;;;;5040496;28;20029;-80
2022/12/12 07:06:23;;;;;;;9.10;6.68;;;2.90;76.40;;;;;;5056492;28;20039;-80
2022/12/12 07:08:50;;;;;;;10.88;8.02;;;2.80;76.30;;;;;;5074425;28;20107;-79
2022/12/12 07:11:22;;;;;;;8.98;6.75;;;2.90;76.40;;;;;;5073610;28;20139;-79
2022/12/12 07:13:48;;;;;;;10.95;7.70;;;2.80;76.30;;;;;;5075049;28;20024;-83
2022/12/12 07:16:15;;;;;;;10.18;7.18;;;2.80;76.30;;;;;;5056411;28;20052;-82
2022/12/12 07:18:40;;;;;;;9.95;7.35;;;2.80;76.30;;;;;;5072875;28;20024;-79
2022/12/12 07:21:08;;;;;;;9.70;6.95;;;2.70;76.30;;;;;;5073040;28;20031;-81
2022/12/12 07:23:34;;;;;;;10.25;7.15;;;2.70;76.30;;;;;;5072970;28;20032;-81
2022/12/12 07:26:18;;;;;;;9.77;6.97;;;2.70;76.30;;;;;;5056019;28;20027;-82
2022/12/12 07:28:44;;;;;;;11.10;8.00;;;2.70;76.30;;;;;;5074426;28;20112;-81
2022/12/12 07:31:13;;;;;;;10.13;7.53;;;2.60;76.30;;;;;;5056269;28;20082;-80
2022/12/12 07:33:40;;;;;;;10.45;7.80;;;2.70;76.30;;;;;;5073795;28;20044;-82
2022/12/12 07:36:06;;;;;;;12.30;8.48;;;2.60;76.20;;;;;;5073677;28;20028;-81
2022/12/12 07:38:32;;;;;;;11.95;8.68;;;2.60;76.20;;;;;;5055823;28;20469;-79
2022/12/12 07:41:06;;;;;;;10.20;7.45;;;2.60;76.20;;;;;;5072821;28;20028;-81
2022/12/12 07:43:37;;;;;;;10.85;8.27;;;2.60;76.20;;;;;;5039282;28;20020;-82
2022/12/12 07:46:07;;;;;;;11.05;8.60;;;2.60;76.20;;;;;;5072885;28;20106;-80
2022/12/12 07:48:34;;;;;;;10.30;7.65;;;2.60;76.20;;;;;;5074328;28;20071;-80
2022/12/12 07:51:00;;;;;;;11.13;7.90;;;2.50;76.10;;;;;;5055810;28;20020;-79
2022/12/12 07:53:27;;;;;;;10.73;8.13;;;2.50;76.20;;;;;;5073607;28;20032;-81
2022/12/12 07:55:52;;;;;;;12.32;9.20;;;2.50;76.20;;;;;;5072261;28;20054;-80
2022/12/12 07:58:18;;;;;;;11.07;8.65;;;2.50;76.20;;;;;;5072695;28;20024;-79
2022/12/12 08:00:44;;;;;;;11.52;8.07;;;2.50;76.20;;;;;;5072074;28;20043;-79
2022/12/12 08:03:09;;;;;;;11.13;7.97;;;2.40;76.10;;;;;;5055843;28;20035;-80
2022/12/12 08:05:39;;;;;;;11.52;7.88;;;2.40;76.20;;;;;;5073485;28;20028;-82
2022/12/12 08:08:05;;;;;;;13.07;9.60;;;2.40;76.20;;;;;;5055913;28;20506;-81
2022/12/12 08:10:31;;;;;;;11.65;8.50;;;2.40;76.20;;;;;;5073472;28;20098;-81
2022/12/12 08:12:56;;;;;;;11.82;9.10;;;2.40;76.20;;;;;;5073616;28;20392;-80
2022/12/12 08:15:22;;;;;;;12.65;9.00;;;2.40;76.10;;;;;;5072605;28;20024;-83
2022/12/12 08:17:48;;;;;;;12.02;8.40;;;2.30;76.10;;;;;;5055551;28;20029;-82
2022/12/12 08:20:15;;;;;;;13.07;8.95;;;2.30;76.70;;;;;;5072585;28;20032;-81
2022/12/12 08:22:41;;;;;;;10.80;8.20;;;2.40;76.10;;;;;;5055055;28;20171;-80
2022/12/12 08:25:08;;;;;;;11.90;9.20;;;2.30;76.00;;;;;;5073009;28;20039;-81
2022/12/12 08:27:34;;;;;;;13.45;9.27;;;2.30;76.10;;;;;;5073431;28;20024;-80
2022/12/12 08:30:00;;;;;;;11.82;8.43;;;2.30;76.10;;;;;;5072262;28;20069;-82
2022/12/12 08:32:25;;;;;;;12.35;8.77;;;2.30;76.10;;;;;;5057745;28;20036;-81
2022/12/12 08:34:55;;;;;;;12.57;8.90;;;2.30;76.10;;;;;;5076894;28;20025;-81
2022/12/12 08:37:21;;;;;;;12.93;9.20;;;2.30;76.10;;;;;;5077900;28;20040;-80
2022/12/12 08:39:47;;;;;;;12.95;8.95;;;2.20;76.00;;;;;;5075360;28;20556;-79
2022/12/12 08:42:12;;;;;;;11.73;8.70;;;2.20;76.00;;;;;;5059552;28;20031;-80
2022/12/12 08:44:38;;;;;;;12.82;8.88;;;2.20;76.60;;;;;;5058897;28;20024;-79
2022/12/12 08:47:04;;;;;;;13.18;8.63;;;2.20;76.00;;;;;;5076223;28;20033;-81
2022/12/12 08:49:30;;;;;;;12.40;8.95;;;2.20;76.00;;;;;;5075660;28;20047;-80
2022/12/12 08:51:57;;;;;;;13.15;8.60;;;2.20;76.00;;;;;;5075632;28;20036;-81
2022/12/12 08:54:24;;;;;;;12.52;9.15;;;2.20;76.00;;;;;;5058813;28;20029;-80
2022/12/12 08:56:50;;;;;;;13.27;9.00;;;2.20;76.10;;;;;;5058738;28;20469;-81
2022/12/12 08:59:15;;;;;;;11.30;8.40;;;2.20;76.00;;;;;;5042570;28;20039;-81
2022/12/12 09:01:41;;;;;;;12.63;9.02;;;2.20;76.00;;;;;;5076527;28;20090;-80
2022/12/12 09:04:07;;;;;;;12.45;8.68;;;2.20;76.00;;;;;;5076182;28;20454;-81
2022/12/12 09:06:33;;;;;;;11.60;8.38;;;2.20;75.90;;;;;;5058902;28;20465;-80
2022/12/12 09:08:58;;;;;;;12.25;8.45;;;2.20;75.90;;;;;;5075460;28;20032;-80
2022/12/12 09:11:25;;;;;;;13.35;9.65;;;2.20;75.90;;;;;;5058256;28;20057;-80
2022/12/12 09:13:50;;;;;;;12.48;8.20;;;2.20;75.90;;;;;;5076236;28;20037;-81
2022/12/12 09:16:16;;;;;;;11.05;7.78;;;2.20;75.90;;;;;;5058661;28;20067;-81
2022/12/12 09:18:42;;;;;;;13.02;9.30;;;2.20;75.90;;;;;;5076543;28;20025;-81
2022/12/12 09:21:08;;;;;;;14.18;10.02;;;2.20;75.90;;;;;;5042135;28;20029;-81
2022/12/12 09:23:34;;;;;;;13.45;9.18;;;2.20;75.90;;;;;;5058284;28;20034;-81
2022/12/12 09:26:07;;;;;;;13.52;9.07;;;2.20;75.90;;;;;;5041537;28;20036;-81
2022/12/12 09:28:33;;;;;;;12.77;8.98;;;2.20;75.90;;;;;;5074960;28;20055;-79
2022/12/12 09:30:59;;;;;;;14.57;8.65;;;2.20;75.90;;;;;;5076091;28;20032;-79
2022/12/12 09:33:25;;;;;;;12.63;9.10;;;2.20;75.90;;;;;;5076065;28;20111;-81
2022/12/12 09:35:58;;;;;;;11.25;8.38;;;2.20;75.90;;;;;;5041124;28;20078;-80
2022/12/12 09:38:24;;;;;;;12.93;9.20;;;2.20;75.90;;;;;;5075809;28;20050;-81
2022/12/12 09:41:02;;;;;;;11.95;8.50;;;2.20;75.80;;;;;;5074720;28;20465;-81
2022/12/12 09:43:38;;;;;;;12.68;8.55;;;2.20;75.90;;;;;;5073962;28;20511;-80
2022/12/12 09:46:14;;;;;;;11.77;8.43;;;2.20;75.80;;;;;;5057704;28;20028;-79
2022/12/12 09:48:45;;;;;;;11.57;8.15;;;2.30;75.90;;;;;;5074375;28;20029;-80
2022/12/12 09:51:12;;;;;;;12.65;8.95;;;2.20;75.90;;;;;;5073637;28;20036;-79
2022/12/12 09:53:44;;;;;;;12.23;8.52;;;2.20;75.90;;;;;;5073488;28;20025;-79
2022/12/12 09:56:19;;;;;;;13.48;8.95;;;2.20;75.90;;;;;;5057303;28;20059;-77
2022/12/12 09:59:15;;;;;;;14.00;9.30;;;2.30;75.90;;;;;;5074484;28;20028;-79
2022/12/12 10:01:59;;;;;;;12.60;9.07;;;2.30;76.00;;;;;;5074743;28;20107;-80
2022/12/12 10:05:03;;;;;;;13.93;9.00;;;2.30;75.90;;;;;;5073509;28;20025;-80
2022/12/12 10:07:54;;;;;;;14.30;8.90;;;2.20;75.90;;;;;;5038378;28;20070;-80
2022/12/12 10:10:28;;;;;;;14.27;8.60;;;2.30;75.90;;;;;;5056187;28;20487;-77
2022/12/12 10:12:57;;;;;;;13.10;8.75;;;2.30;75.90;;;;;;5073231;28;20469;-77
2022/12/12 10:15:28;;;;;;;12.20;8.65;;;2.30;75.90;;;;;;5039619;28;20028;-76
2022/12/12 10:17:56;;;;;;;11.13;8.35;;;2.30;75.90;;;;;;5074390;28;20017;-77
2022/12/12 10:20:27;;;;;;;13.02;9.23;;;2.30;75.90;;;;;;5056509;28;20039;-78
2022/12/12 10:23:22;;;;;;;13.80;9.23;;;2.30;75.90;;;;;;5056476;28;20056;-78
2022/12/12 10:26:01;;;;;;;13.55;8.90;;;2.30;76.00;;;;;;5074450;28;20059;-77
2022/12/12 10:28:30;;;;;;;12.40;9.07;;;2.30;75.90;;;;;;5073623;28;20024;-78
2022/12/12 10:31:21;;;;;;;12.63;9.30;;;2.30;75.90;;;;;;5056052;28;20090;-77
2022/12/12 10:33:49;;;;;;;12.32;8.75;;;2.40;76.00;;;;;;5074272;28;20028;-78
2022/12/12 10:36:21;;;;;;;12.77;8.25;;;2.30;75.90;;;;;;5072942;28;20190;-77
2022/12/12 10:38:53;;;;;;;14.05;9.05;;;2.30;75.90;;;;;;5072439;28;20029;-77
2022/12/12 10:41:46;;;;;;;10.52;8.13;;;2.30;76.00;;;;;;5073655;28;20028;-78
2022/12/12 10:44:31;;;;;;;11.00;8.75;;;2.40;76.10;;;;;;5056788;28;20040;-77
2022/12/12 10:47:05;;;;;;;12.82;8.43;;;2.40;76.00;;;;;;5073136;28;20430;-77
2022/12/12 10:49:32;;;;;;;11.63;8.40;;;2.40;76.00;;;;;;5055615;28;20028;-77
2022/12/12 10:52:02;;;;;;;13.52;8.90;;;2.40;76.00;;;;;;5038261;28;20029;-78
2022/12/12 10:54:30;;;;;;;12.23;8.52;;;2.40;76.00;;;;;;5072342;28;20120;-77
2022/12/12 10:57:05;;;;;;;10.38;7.35;;;2.40;76.00;;;;;;5072945;28;20025;-78
2022/12/12 10:59:36;;;;;;;11.70;7.65;;;2.40;76.00;;;;;;5073443;28;20029;-77
2022/12/12 11:02:02;;;;;;;11.35;7.85;;;2.40;76.00;;;;;;5055402;28;20020;-77
2022/12/12 11:04:30;;;;;;;14.77;8.52;;;2.40;76.00;;;;;;5055232;28;20040;-77
2022/12/12 11:06:56;;;;;;;10.98;7.38;;;2.40;76.00;;;;;;5038774;28;20063;-77
2022/12/12 11:09:26;;;;;;;11.73;8.15;;;2.40;76.00;;;;;;5072827;28;20062;-77
2022/12/12 11:12:10;;;;;;;11.77;7.97;;;2.40;76.10;;;;;;5072924;28;20040;-78
2022/12/12 11:14:39;;;;;;;12.55;8.50;;;2.50;76.20;;;;;;5072719;28;20470;-77
2022/12/12 11:17:24;;;;;;;12.07;8.23;;;2.50;76.10;;;;;;5038509;28;20032;-77
2022/12/12 11:19:52;;;;;;;11.57;7.63;;;2.50;76.20;;;;;;5073127;28;20028;-78
2022/12/12 11:22:18;;;;;;;11.00;8.07;;;2.50;76.10;;;;;;5055088;28;20025;-77
2022/12/12 11:24:46;;;;;;;12.02;7.57;;;2.50;76.10;;;;;;5071934;28;20119;-77
2022/12/12 11:27:23;;;;;;;12.40;8.65;;;2.50;76.10;;;;;;5055354;28;20050;-79
2022/12/12 11:29:57;;;;;;;11.07;7.70;;;2.50;76.20;;;;;;5055623;28;20396;-80
2022/12/12 11:32:28;;;;;;;10.77;7.70;;;2.50;76.20;;;;;;5073625;28;20055;-78
2022/12/12 11:34:58;;;;;;;10.18;7.45;;;2.50;76.20;;;;;;5073331;28;20028;-78
2022/12/12 11:37:28;;;;;;;11.02;7.63;;;2.50;76.10;;;;;;5055681;28;20392;-78
2022/12/12 11:39:55;;;;;;;10.77;7.57;;;2.50;76.20;;;;;;5072593;28;20056;-78
2022/12/12 11:42:26;;;;;;;10.95;7.32;;;2.50;76.10;;;;;;5055214;28;20108;-77
2022/12/12 11:45:18;;;;;;;10.95;7.72;;;2.60;76.30;;;;;;5055742;28;20097;-78
2022/12/12 11:47:46;;;;;;;11.48;7.70;;;2.60;76.30;;;;;;5073001;28;20442;-77
2022/12/12 11:50:27;;;;;;;11.00;6.82;;;2.60;76.20;;;;;;5055570;28;20039;-78
2022/12/12 11:52:56;;;;;;;11.50;7.57;;;2.60;76.20;;;;;;5055801;28;20024;-78
2022/12/12 11:55:58;;;;;;;10.25;7.20;;;2.60;76.20;;;;;;5055297;28;20048;-78
2022/12/12 11:58:56;;;;;;;11.10;7.30;;;2.60;76.30;;;;;;5072179;28;20029;-78
2022/12/12 12:01:40;;;;;;;11.07;7.75;;;2.60;76.30;;;;;;5041803;28;20446;-78
2022/12/12 12:04:17;;;;;;;9.73;7.25;;;2.60;76.30;;;;;;5055397;28;20032;-78
2022/12/12 12:07:07;;;;;;;9.85;6.78;;;2.60;76.30;;;;;;5073611;28;20028;-79
2022/12/12 12:10:01;;;;;;;9.30;6.70;;;2.60;76.30;;;;;;5060388;28;20036;-79
2022/12/12 12:12:38;;;;;;;10.07;7.35;;;2.70;76.30;;;;;;5059621;28;20055;-78
2022/12/12 12:15:04;;;;;;;9.35;6.85;;;2.60;76.20;;;;;;5076302;28;20438;-78
2022/12/12 12:17:47;;;;;;;9.73;6.78;;;2.70;76.20;;;;;;5059133;28;20039;-78
2022/12/12 12:20:32;;;;;;;10.95;6.90;;;2.60;76.20;;;;;;5043152;28;20036;-81
2022/12/12 12:23:25;;;;;;;8.73;6.73;;;2.70;76.30;;;;;;5059780;28;20029;-81
2022/12/12 12:26:00;;;;;;;10.02;6.70;;;2.70;76.30;;;;;;5059463;28;20078;-81
2022/12/12 12:28:25;;;;;;;9.27;6.25;;;2.70;76.30;;;;;;5076530;28;20441;-81
2022/12/12 12:31:17;;;;;;;10.45;6.93;;;2.70;76.20;;;;;;5075997;28;20075;-81
2022/12/12 12:34:24;;;;;;;8.98;6.40;;;2.70;76.30;;;;;;5042884;28;20035;-78
2022/12/12 12:37:08;;;;;;;8.95;6.30;;;2.70;76.30;;;;;;5006193;28;20507;-79
2022/12/12 12:39:52;;;;;;;10.15;6.43;;;2.80;76.30;;;;;;5075827;28;20040;-79
2022/12/12 12:42:24;;;;;;;10.43;6.95;;;2.80;76.30;;;;;;5077363;28;20511;-79
2022/12/12 12:44:53;;;;;;;9.43;7.03;;;2.80;76.30;;;;;;5076114;28;20032;-79
2022/12/12 12:47:26;;;;;;;9.13;6.30;;;2.80;76.30;;;;;;5059311;28;20066;-78
2022/12/12 12:50:14;;;;;;;9.63;6.57;;;2.80;76.40;;;;;;5075669;28;20039;-81
2022/12/12 12:53:04;;;;;;;9.68;6.78;;;2.90;76.40;;;;;;5059176;28;20169;-78
2022/12/12 12:55:54;;;;;;;8.50;5.82;;;2.90;76.30;;;;;;5059271;28;20029;-80
2022/12/12 12:58:31;;;;;;;9.07;6.05;;;3.00;76.30;;;;;;5059519;28;20056;-79
2022/12/12 13:01:07;;;;;;;7.78;5.63;;;3.00;76.30;;;;;;5059340;28;20024;-80
2022/12/12 13:03:44;;;;;;;9.43;6.35;;;3.00;76.20;;;;;;5076841;28;20025;-80
2022/12/12 13:06:24;;;;;;;7.88;6.20;;;3.00;76.20;;;;;;5059124;28;20029;-80
2022/12/12 13:08:59;;;;;;;9.27;5.95;;;3.00;76.10;;;;;;5076789;28;20135;-80
2022/12/12 13:11:35;;;;;;;8.40;6.05;;;3.10;76.10;;;;;;5058745;28;20489;-79
2022/12/12 13:14:14;;;;;;;8.27;5.78;;;3.10;76.10;;;;;;5075229;28;20151;-79
2022/12/12 13:16:41;;;;;;;9.02;6.35;;;3.10;76.10;;;;;;5076338;28;20048;-79
2022/12/12 13:19:20;;;;;;;9.00;6.35;;;3.20;76.10;;;;;;5058003;28;20028;-79
2022/12/12 13:22:05;;;;;;;7.85;5.15;;;3.20;76.00;;;;;;5074967;28;20239;-78
2022/12/12 13:24:56;;;;;;;7.85;5.55;;;3.20;76.10;;;;;;5076087;28;20060;-80
2022/12/12 13:27:25;;;;;;;8.15;5.80;;;3.20;76.20;;;;;;5075415;28;20032;-79
2022/12/12 13:30:18;;;;;;;7.82;5.57;;;3.20;76.20;;;;;;5075424;28;20032;-79